sensor_id;sensor_type;location;lat;lon;timestamp;temperature;humidity
65972;SHT31;52726;48.852;9.152;2022-10-16T00:01:45;15.38;90.23
65972;SHT31;52726;48.852;9.152;2022-10-16T00:04:11;15.34;89.98
65972;SHT31;52726;48.852;9.152;2022-10-16T00:06:37;15.33;90.10
65972;SHT31;52726;48.852;9.152;2022-10-16T00:09:02;15.33;90.24
65972;SHT31;52726;48.852;9.152;2022-10-16T00:11:33;15.30;90.28
65972;SHT31;52726;48.852;9.152;2022-10-16T00:14:00;15.27;90.68
65972;SHT31;52726;48.852;9.152;2022-10-16T00:16:27;15.23;90.52
65972;SHT31;52726;48.852;9.152;2022-10-16T00:18:53;15.20;90.92
65972;SHT31;52726;48.852;9.152;2022-10-16T00:21:22;15.16;90.62
65972;SHT31;52726;48.852;9.152;2022-10-16T00:23:52;15.17;90.83
65972;SHT31;52726;48.852;9.152;2022-10-16T00:26:18;15.17;90.38
65972;SHT31;52726;48.852;9.152;2022-10-16T00:28:46;15.17;90.43
65972;SHT31;52726;48.852;9.152;2022-10-16T00:31:12;15.19;90.52
65972;SHT31;52726;48.852;9.152;2022-10-16T00:33:38;15.22;90.31
65972;SHT31;52726;48.852;9.152;2022-10-16T00:36:05;15.23;90.31
65972;SHT31;52726;48.852;9.152;2022-10-16T00:38:31;15.19;90.10
65972;SHT31;52726;48.852;9.152;2022-10-16T00:40:56;15.20;90.38
65972;SHT31;52726;48.852;9.152;2022-10-16T00:43:45;15.19;90.49
65972;SHT31;52726;48.852;9.152;2022-10-16T00:49:10;15.14;90.33
65972;SHT31;52726;48.852;9.152;2022-10-16T00:51:38;15.17;90.39
65972;SHT31;52726;48.852;9.152;2022-10-16T00:54:10;15.11;90.49
65972;SHT31;52726;48.852;9.152;2022-10-16T00:56:36;15.10;90.65
65972;SHT31;52726;48.852;9.152;2022-10-16T00:59:07;15.07;90.80
65972;SHT31;52726;48.852;9.152;2022-10-16T01:01:36;15.07;91.11
65972;SHT31;52726;48.852;9.152;2022-10-16T01:04:01;15.03;91.28
65972;SHT31;52726;48.852;9.152;2022-10-16T01:06:48;15.02;91.53
65972;SHT31;52726;48.852;9.152;2022-10-16T01:12:20;14.93;92.07
65972;SHT31;52726;48.852;9.152;2022-10-16T01:14:59;14.88;92.31
65972;SHT31;52726;48.852;9.152;2022-10-16T01:17:43;14.85;92.53
65972;SHT31;52726;48.852;9.152;2022-10-16T01:20:26;14.82;92.97
65972;SHT31;52726;48.852;9.152;2022-10-16T01:28:24;14.83;92.81
65972;SHT31;52726;48.852;9.152;2022-10-16T01:30:56;14.85;92.74
65972;SHT31;52726;48.852;9.152;2022-10-16T01:33:29;14.83;92.90
65972;SHT31;52726;48.852;9.152;2022-10-16T01:35:59;14.82;92.76
65972;SHT31;52726;48.852;9.152;2022-10-16T01:38:37;14.85;92.53
65972;SHT31;52726;48.852;9.152;2022-10-16T01:41:21;14.88;92.34
65972;SHT31;52726;48.852;9.152;2022-10-16T01:43:53;14.88;92.38
65972;SHT31;52726;48.852;9.152;2022-10-16T01:46:22;14.90;92.08
65972;SHT31;52726;48.852;9.152;2022-10-16T01:48:49;14.92;92.15
65972;SHT31;52726;48.852;9.152;2022-10-16T01:51:16;14.90;91.85
65972;SHT31;52726;48.852;9.152;2022-10-16T01:53:46;14.95;92.02
65972;SHT31;52726;48.852;9.152;2022-10-16T01:56:14;14.96;91.98
65972;SHT31;52726;48.852;9.152;2022-10-16T01:58:45;14.93;92.15
65972;SHT31;52726;48.852;9.152;2022-10-16T02:01:13;14.96;91.66
65972;SHT31;52726;48.852;9.152;2022-10-16T02:03:41;14.96;91.74
65972;SHT31;52726;48.852;9.152;2022-10-16T02:06:08;15.00;91.77
65972;SHT31;52726;48.852;9.152;2022-10-16T02:08:34;14.99;91.47
65972;SHT31;52726;48.852;9.152;2022-10-16T02:11:00;15.07;91.29
65972;SHT31;52726;48.852;9.152;2022-10-16T02:15:58;15.10;91.30
65972;SHT31;52726;48.852;9.152;2022-10-16T02:18:23;15.07;91.11
65972;SHT31;52726;48.852;9.152;2022-10-16T02:21:17;15.09;90.97
65972;SHT31;52726;48.852;9.152;2022-10-16T02:26:49;15.06;91.20
65972;SHT31;52726;48.852;9.152;2022-10-16T02:29:22;15.06;91.18
65972;SHT31;52726;48.852;9.152;2022-10-16T02:31:50;15.04;91.06
65972;SHT31;52726;48.852;9.152;2022-10-16T02:34:18;15.06;91.07
65972;SHT31;52726;48.852;9.152;2022-10-16T02:36:48;15.06;91.08
65972;SHT31;52726;48.852;9.152;2022-10-16T02:39:16;15.09;91.21
65972;SHT31;52726;48.852;9.152;2022-10-16T02:41:42;15.11;90.58
65972;SHT31;52726;48.852;9.152;2022-10-16T02:44:08;15.11;90.61
65972;SHT31;52726;48.852;9.152;2022-10-16T02:46:33;15.14;90.72
65972;SHT31;52726;48.852;9.152;2022-10-16T02:48:58;15.14;90.44
65972;SHT31;52726;48.852;9.152;2022-10-16T02:51:24;15.13;90.35
65972;SHT31;52726;48.852;9.152;2022-10-16T02:53:49;15.16;90.23
65972;SHT31;52726;48.852;9.152;2022-10-16T02:56:14;15.14;90.29
65972;SHT31;52726;48.852;9.152;2022-10-16T02:58:40;15.16;90.60
65972;SHT31;52726;48.852;9.152;2022-10-16T03:01:05;15.11;90.81
65972;SHT31;52726;48.852;9.152;2022-10-16T03:03:30;15.07;91.19
65972;SHT31;52726;48.852;9.152;2022-10-16T03:05:56;15.02;91.62
65972;SHT31;52726;48.852;9.152;2022-10-16T03:08:21;14.97;91.63
65972;SHT31;52726;48.852;9.152;2022-10-16T03:10:49;14.92;91.88
65972;SHT31;52726;48.852;9.152;2022-10-16T03:13:15;14.92;91.92
65972;SHT31;52726;48.852;9.152;2022-10-16T03:15:40;14.86;92.25
65972;SHT31;52726;48.852;9.152;2022-10-16T03:18:05;14.80;92.72
65972;SHT31;52726;48.852;9.152;2022-10-16T03:20:31;14.72;92.80
65972;SHT31;52726;48.852;9.152;2022-10-16T03:22:56;14.65;93.16
65972;SHT31;52726;48.852;9.152;2022-10-16T03:25:21;14.61;93.46
65972;SHT31;52726;48.852;9.152;2022-10-16T03:27:47;14.55;93.46
65972;SHT31;52726;48.852;9.152;2022-10-16T03:30:12;14.48;93.91
65972;SHT31;52726;48.852;9.152;2022-10-16T03:32:37;14.48;93.87
65972;SHT31;52726;48.852;9.152;2022-10-16T03:35:03;14.42;94.21
65972;SHT31;52726;48.852;9.152;2022-10-16T03:37:28;14.38;94.06
65972;SHT31;52726;48.852;9.152;2022-10-16T03:39:54;14.35;94.26
65972;SHT31;52726;48.852;9.152;2022-10-16T03:42:20;14.34;94.38
65972;SHT31;52726;48.852;9.152;2022-10-16T03:44:45;14.34;94.05
65972;SHT31;52726;48.852;9.152;2022-10-16T03:47:10;14.35;94.13
65972;SHT31;52726;48.852;9.152;2022-10-16T03:49:36;14.35;94.16
65972;SHT31;52726;48.852;9.152;2022-10-16T03:52:01;14.37;94.29
65972;SHT31;52726;48.852;9.152;2022-10-16T03:54:26;14.35;94.24
65972;SHT31;52726;48.852;9.152;2022-10-16T03:56:52;14.32;94.44
65972;SHT31;52726;48.852;9.152;2022-10-16T03:59:17;14.28;94.53
65972;SHT31;52726;48.852;9.152;2022-10-16T04:01:43;14.27;94.84
65972;SHT31;52726;48.852;9.152;2022-10-16T04:04:08;14.25;94.88
65972;SHT31;52726;48.852;9.152;2022-10-16T04:06:34;14.23;94.81
65972;SHT31;52726;48.852;9.152;2022-10-16T04:08:59;14.21;94.86
65972;SHT31;52726;48.852;9.152;2022-10-16T04:11:24;14.16;94.92
65972;SHT31;52726;48.852;9.152;2022-10-16T04:13:49;14.14;95.15
65972;SHT31;52726;48.852;9.152;2022-10-16T04:16:15;14.17;95.48
65972;SHT31;52726;48.852;9.152;2022-10-16T04:18:40;14.16;95.27
65972;SHT31;52726;48.852;9.152;2022-10-16T04:21:06;14.13;94.99
65972;SHT31;52726;48.852;9.152;2022-10-16T04:23:32;14.10;95.32
65972;SHT31;52726;48.852;9.152;2022-10-16T04:25:57;14.09;95.17
65972;SHT31;52726;48.852;9.152;2022-10-16T04:28:23;14.09;95.31
65972;SHT31;52726;48.852;9.152;2022-10-16T04:30:48;14.07;95.66
65972;SHT31;52726;48.852;9.152;2022-10-16T04:33:14;14.07;95.76
65972;SHT31;52726;48.852;9.152;2022-10-16T04:35:39;14.07;95.66
65972;SHT31;52726;48.852;9.152;2022-10-16T04:38:04;14.10;95.54
65972;SHT31;52726;48.852;9.152;2022-10-16T04:40:30;14.11;95.61
65972;SHT31;52726;48.852;9.152;2022-10-16T04:42:58;14.11;95.37
65972;SHT31;52726;48.852;9.152;2022-10-16T04:45:24;14.18;95.27
65972;SHT31;52726;48.852;9.152;2022-10-16T04:47:49;14.13;95.17
65972;SHT31;52726;48.852;9.152;2022-10-16T04:50:14;14.13;95.44
65972;SHT31;52726;48.852;9.152;2022-10-16T04:52:40;14.13;95.44
65972;SHT31;52726;48.852;9.152;2022-10-16T04:55:05;14.14;95.58
65972;SHT31;52726;48.852;9.152;2022-10-16T04:57:31;14.16;95.52
65972;SHT31;52726;48.852;9.152;2022-10-16T04:59:58;14.18;95.35
65972;SHT31;52726;48.852;9.152;2022-10-16T05:02:23;14.17;95.31
65972;SHT31;52726;48.852;9.152;2022-10-16T05:04:49;14.13;95.46
65972;SHT31;52726;48.852;9.152;2022-10-16T05:07:14;14.10;95.27
65972;SHT31;52726;48.852;9.152;2022-10-16T05:09:40;14.07;95.52
65972;SHT31;52726;48.852;9.152;2022-10-16T05:12:05;14.06;95.69
65972;SHT31;52726;48.852;9.152;2022-10-16T05:14:31;14.03;95.67
65972;SHT31;52726;48.852;9.152;2022-10-16T05:16:56;14.03;95.67
65972;SHT31;52726;48.852;9.152;2022-10-16T05:19:22;14.00;95.83
65972;SHT31;52726;48.852;9.152;2022-10-16T05:21:47;13.94;95.97
65972;SHT31;52726;48.852;9.152;2022-10-16T05:24:12;13.94;95.98
65972;SHT31;52726;48.852;9.152;2022-10-16T05:26:38;13.94;95.93
65972;SHT31;52726;48.852;9.152;2022-10-16T05:29:03;13.93;96.11
65972;SHT31;52726;48.852;9.152;2022-10-16T05:31:28;13.87;96.20
65972;SHT31;52726;48.852;9.152;2022-10-16T05:33:58;13.87;96.11
65972;SHT31;52726;48.852;9.152;2022-10-16T05:36:24;13.83;96.06
65972;SHT31;52726;48.852;9.152;2022-10-16T05:38:50;13.80;96.26
65972;SHT31;52726;48.852;9.152;2022-10-16T05:41:15;13.79;96.20
65972;SHT31;52726;48.852;9.152;2022-10-16T05:43:46;13.76;96.33
65972;SHT31;52726;48.852;9.152;2022-10-16T05:46:12;13.76;96.53
65972;SHT31;52726;48.852;9.152;2022-10-16T05:48:37;13.76;96.34
65972;SHT31;52726;48.852;9.152;2022-10-16T05:51:05;13.76;96.28
65972;SHT31;52726;48.852;9.152;2022-10-16T05:53:33;13.76;96.53
65972;SHT31;52726;48.852;9.152;2022-10-16T05:55:59;13.79;96.52
65972;SHT31;52726;48.852;9.152;2022-10-16T05:58:25;13.82;96.51
65972;SHT31;52726;48.852;9.152;2022-10-16T06:00:55;13.84;96.45
65972;SHT31;52726;48.852;9.152;2022-10-16T06:03:21;13.87;96.53
65972;SHT31;52726;48.852;9.152;2022-10-16T06:05:47;13.90;96.49
65972;SHT31;52726;48.852;9.152;2022-10-16T06:08:12;13.87;96.64
65972;SHT31;52726;48.852;9.152;2022-10-16T06:10:37;13.93;96.61
65972;SHT31;52726;48.852;9.152;2022-10-16T06:13:03;13.93;96.46
65972;SHT31;52726;48.852;9.152;2022-10-16T06:15:29;13.90;96.39
65972;SHT31;52726;48.852;9.152;2022-10-16T06:17:54;13.94;96.27
65972;SHT31;52726;48.852;9.152;2022-10-16T06:20:19;13.90;96.21
65972;SHT31;52726;48.852;9.152;2022-10-16T06:22:45;13.90;96.25
65972;SHT31;52726;48.852;9.152;2022-10-16T06:25:10;13.90;96.30
65972;SHT31;52726;48.852;9.152;2022-10-16T06:27:35;13.91;96.22
65972;SHT31;52726;48.852;9.152;2022-10-16T06:30:01;13.93;96.21
65972;SHT31;52726;48.852;9.152;2022-10-16T06:32:27;13.94;96.19
65972;SHT31;52726;48.852;9.152;2022-10-16T06:34:52;14.00;96.54
65972;SHT31;52726;48.852;9.152;2022-10-16T06:37:18;14.13;96.10
65972;SHT31;52726;48.852;9.152;2022-10-16T06:39:43;14.14;96.05
65972;SHT31;52726;48.852;9.152;2022-10-16T06:42:08;14.24;95.80
65972;SHT31;52726;48.852;9.152;2022-10-16T06:44:33;14.30;95.60
65972;SHT31;52726;48.852;9.152;2022-10-16T06:46:59;14.34;95.49
65972;SHT31;52726;48.852;9.152;2022-10-16T06:49:24;14.40;95.24
65972;SHT31;52726;48.852;9.152;2022-10-16T06:51:49;14.42;95.21
65972;SHT31;52726;48.852;9.152;2022-10-16T06:54:15;14.49;95.22
65972;SHT31;52726;48.852;9.152;2022-10-16T06:56:41;14.49;95.28
65972;SHT31;52726;48.852;9.152;2022-10-16T06:59:06;14.54;94.97
65972;SHT31;52726;48.852;9.152;2022-10-16T07:01:32;14.61;94.79
65972;SHT31;52726;48.852;9.152;2022-10-16T07:03:58;14.68;94.33
65972;SHT31;52726;48.852;9.152;2022-10-16T07:06:26;14.76;93.81
65972;SHT31;52726;48.852;9.152;2022-10-16T07:08:52;14.86;93.78
65972;SHT31;52726;48.852;9.152;2022-10-16T07:11:20;14.93;93.70
65972;SHT31;52726;48.852;9.152;2022-10-16T07:13:46;14.99;93.81
65972;SHT31;52726;48.852;9.152;2022-10-16T07:16:17;15.02;93.85
65972;SHT31;52726;48.852;9.152;2022-10-16T07:18:43;15.04;93.95
65972;SHT31;52726;48.852;9.152;2022-10-16T07:21:16;15.04;93.84
65972;SHT31;52726;48.852;9.152;2022-10-16T07:23:42;15.07;93.96
65972;SHT31;52726;48.852;9.152;2022-10-16T07:26:07;15.09;93.64
65972;SHT31;52726;48.852;9.152;2022-10-16T07:28:33;15.06;93.69
65972;SHT31;52726;48.852;9.152;2022-10-16T07:31:10;15.07;93.80
65972;SHT31;52726;48.852;9.152;2022-10-16T07:33:39;15.07;93.46
65972;SHT31;52726;48.852;9.152;2022-10-16T07:36:05;15.06;93.66
65972;SHT31;52726;48.852;9.152;2022-10-16T07:38:31;15.04;93.73
65972;SHT31;52726;48.852;9.152;2022-10-16T07:41:01;15.07;93.64
65972;SHT31;52726;48.852;9.152;2022-10-16T07:43:27;15.07;93.35
65972;SHT31;52726;48.852;9.152;2022-10-16T07:45:53;15.09;93.47
65972;SHT31;52726;48.852;9.152;2022-10-16T07:48:20;15.16;93.27
65972;SHT31;52726;48.852;9.152;2022-10-16T07:50:46;15.22;92.89
65972;SHT31;52726;48.852;9.152;2022-10-16T07:53:12;15.28;93.03
65972;SHT31;52726;48.852;9.152;2022-10-16T07:55:38;15.33;92.63
65972;SHT31;52726;48.852;9.152;2022-10-16T07:58:04;15.38;92.67
65972;SHT31;52726;48.852;9.152;2022-10-16T08:00:29;15.48;92.55
65972;SHT31;52726;48.852;9.152;2022-10-16T08:02:57;15.55;92.19
65972;SHT31;52726;48.852;9.152;2022-10-16T08:05:29;15.65;91.79
65972;SHT31;52726;48.852;9.152;2022-10-16T08:07:55;15.77;90.99
65972;SHT31;52726;48.852;9.152;2022-10-16T08:10:23;15.88;90.96
65972;SHT31;52726;48.852;9.152;2022-10-16T08:12:49;15.96;90.68
65972;SHT31;52726;48.852;9.152;2022-10-16T08:15:14;16.10;90.37
65972;SHT31;52726;48.852;9.152;2022-10-16T08:17:40;16.24;90.42
65972;SHT31;52726;48.852;9.152;2022-10-16T08:20:05;16.40;89.87
65972;SHT31;52726;48.852;9.152;2022-10-16T08:22:31;16.69;88.72
65972;SHT31;52726;48.852;9.152;2022-10-16T08:24:56;17.33;87.56
65972;SHT31;52726;48.852;9.152;2022-10-16T08:27:22;17.64;85.75
65972;SHT31;52726;48.852;9.152;2022-10-16T08:29:49;17.92;84.61
65972;SHT31;52726;48.852;9.152;2022-10-16T08:32:15;17.92;84.95
65972;SHT31;52726;48.852;9.152;2022-10-16T08:34:40;17.92;84.28
65972;SHT31;52726;48.852;9.152;2022-10-16T08:37:05;17.88;83.98
65972;SHT31;52726;48.852;9.152;2022-10-16T08:39:33;17.85;83.10
65972;SHT31;52726;48.852;9.152;2022-10-16T08:42:07;17.91;83.43
65972;SHT31;52726;48.852;9.152;2022-10-16T08:44:42;17.95;82.73
65972;SHT31;52726;48.852;9.152;2022-10-16T08:47:26;17.94;82.67
65972;SHT31;52726;48.852;9.152;2022-10-16T08:50:01;17.95;82.83
65972;SHT31;52726;48.852;9.152;2022-10-16T08:52:34;18.04;83.70
65972;SHT31;52726;48.852;9.152;2022-10-16T08:55:01;18.08;83.56
65972;SHT31;52726;48.852;9.152;2022-10-16T08:57:27;18.16;83.99
65972;SHT31;52726;48.852;9.152;2022-10-16T08:59:53;18.11;83.84
65972;SHT31;52726;48.852;9.152;2022-10-16T09:02:38;18.12;84.56
65972;SHT31;52726;48.852;9.152;2022-10-16T09:05:31;18.08;83.92
65972;SHT31;52726;48.852;9.152;2022-10-16T09:08:40;18.11;84.59
65972;SHT31;52726;48.852;9.152;2022-10-16T09:13:46;18.08;84.54
65972;SHT31;52726;48.852;9.152;2022-10-16T09:16:24;18.11;83.97
65972;SHT31;52726;48.852;9.152;2022-10-16T09:18:56;18.25;84.31
65972;SHT31;52726;48.852;9.152;2022-10-16T09:21:26;18.56;81.31
65972;SHT31;52726;48.852;9.152;2022-10-16T09:23:58;18.66;82.95
65972;SHT31;52726;48.852;9.152;2022-10-16T09:26:24;18.77;82.67
65972;SHT31;52726;48.852;9.152;2022-10-16T09:28:52;18.83;82.18
65972;SHT31;52726;48.852;9.152;2022-10-16T09:31:19;18.91;80.03
65972;SHT31;52726;48.852;9.152;2022-10-16T09:33:49;18.95;80.16
65972;SHT31;52726;48.852;9.152;2022-10-16T09:36:16;19.03;81.29
65972;SHT31;52726;48.852;9.152;2022-10-16T09:38:42;19.01;80.03
65972;SHT31;52726;48.852;9.152;2022-10-16T09:41:19;18.97;79.50
65972;SHT31;52726;48.852;9.152;2022-10-16T09:43:59;18.97;79.50
65972;SHT31;52726;48.852;9.152;2022-10-16T09:46:31;18.97;79.41
65972;SHT31;52726;48.852;9.152;2022-10-16T09:48:59;18.94;79.08
65972;SHT31;52726;48.852;9.152;2022-10-16T09:51:29;18.94;79.88
65972;SHT31;52726;48.852;9.152;2022-10-16T09:54:00;19.00;78.27
65972;SHT31;52726;48.852;9.152;2022-10-16T09:56:31;18.97;80.09
65972;SHT31;52726;48.852;9.152;2022-10-16T09:59:31;19.11;80.87
65972;SHT31;52726;48.852;9.152;2022-10-16T10:01:56;19.15;79.09
65972;SHT31;52726;48.852;9.152;2022-10-16T10:04:36;19.22;79.56
65972;SHT31;52726;48.852;9.152;2022-10-16T10:07:02;19.26;78.76
65972;SHT31;52726;48.852;9.152;2022-10-16T10:09:37;19.32;78.43
65972;SHT31;52726;48.852;9.152;2022-10-16T10:12:05;19.42;79.57
65972;SHT31;52726;48.852;9.152;2022-10-16T10:14:44;19.46;77.54
65972;SHT31;52726;48.852;9.152;2022-10-16T10:22:26;19.74;76.34
65972;SHT31;52726;48.852;9.152;2022-10-16T10:28:18;20.00;74.60
65972;SHT31;52726;48.852;9.152;2022-10-16T10:33:37;20.37;71.82
65972;SHT31;52726;48.852;9.152;2022-10-16T10:36:20;20.34;75.92
65972;SHT31;52726;48.852;9.152;2022-10-16T10:49:01;20.94;71.35
65972;SHT31;52726;48.852;9.152;2022-10-16T10:58:19;21.41;69.56
65972;SHT31;52726;48.852;9.152;2022-10-16T11:06:18;21.33;69.00
65972;SHT31;52726;48.852;9.152;2022-10-16T11:17:11;21.44;67.63
65972;SHT31;52726;48.852;9.152;2022-10-16T11:19:57;21.38;68.58
65972;SHT31;52726;48.852;9.152;2022-10-16T11:22:50;21.27;69.83
65972;SHT31;52726;48.852;9.152;2022-10-16T11:27:51;21.07;70.15
65972;SHT31;52726;48.852;9.152;2022-10-16T11:30:23;21.08;71.30
65972;SHT31;52726;48.852;9.152;2022-10-16T11:38:31;21.31;69.49
65972;SHT31;52726;48.852;9.152;2022-10-16T11:40:58;21.41;69.44
65972;SHT31;52726;48.852;9.152;2022-10-16T11:43:43;21.55;66.29
65972;SHT31;52726;48.852;9.152;2022-10-16T11:46:15;21.55;65.96
65972;SHT31;52726;48.852;9.152;2022-10-16T11:49:12;21.52;67.48
65972;SHT31;52726;48.852;9.152;2022-10-16T11:51:47;21.52;70.24
65972;SHT31;52726;48.852;9.152;2022-10-16T11:54:22;21.47;73.53
65972;SHT31;52726;48.852;9.152;2022-10-16T11:56:52;21.63;70.76
65972;SHT31;52726;48.852;9.152;2022-10-16T12:01:55;21.74;68.68
65972;SHT31;52726;48.852;9.152;2022-10-16T12:04:47;21.71;69.81
65972;SHT31;52726;48.852;9.152;2022-10-16T12:07:16;21.71;70.47
65972;SHT31;52726;48.852;9.152;2022-10-16T12:09:43;21.65;68.93
65972;SHT31;52726;48.852;9.152;2022-10-16T12:12:39;21.48;74.44
65972;SHT31;52726;48.852;9.152;2022-10-16T12:15:28;21.34;72.37
65972;SHT31;52726;48.852;9.152;2022-10-16T12:17:54;21.34;70.13
65972;SHT31;52726;48.852;9.152;2022-10-16T12:22:51;21.41;69.57
65972;SHT31;52726;48.852;9.152;2022-10-16T12:25:33;21.48;71.04
65972;SHT31;52726;48.852;9.152;2022-10-16T12:28:05;21.48;69.85
65972;SHT31;52726;48.852;9.152;2022-10-16T12:30:36;21.34;68.48
65972;SHT31;52726;48.852;9.152;2022-10-16T12:33:04;21.33;72.98
65972;SHT31;52726;48.852;9.152;2022-10-16T12:35:33;21.35;69.92
65972;SHT31;52726;48.852;9.152;2022-10-16T12:38:08;21.45;70.86
65972;SHT31;52726;48.852;9.152;2022-10-16T12:40:39;21.50;70.36
65972;SHT31;52726;48.852;9.152;2022-10-16T12:45:46;21.61;70.74
65972;SHT31;52726;48.852;9.152;2022-10-16T12:48:21;21.81;71.00
65972;SHT31;52726;48.852;9.152;2022-10-16T12:50:47;21.85;69.29
65972;SHT31;52726;48.852;9.152;2022-10-16T12:53:25;22.02;70.22
65972;SHT31;52726;48.852;9.152;2022-10-16T12:59:02;21.96;68.91
65972;SHT31;52726;48.852;9.152;2022-10-16T13:01:37;22.03;68.67
65972;SHT31;52726;48.852;9.152;2022-10-16T13:07:25;22.19;65.26
65972;SHT31;52726;48.852;9.152;2022-10-16T13:17:13;22.19;68.37
65972;SHT31;52726;48.852;9.152;2022-10-16T13:22:33;22.20;67.96
65972;SHT31;52726;48.852;9.152;2022-10-16T13:27:52;21.98;68.08
65972;SHT31;52726;48.852;9.152;2022-10-16T13:30:26;22.02;67.97
65972;SHT31;52726;48.852;9.152;2022-10-16T13:33:01;22.09;70.81
65972;SHT31;52726;48.852;9.152;2022-10-16T13:35:30;22.19;65.01
65972;SHT31;52726;48.852;9.152;2022-10-16T13:38:14;22.26;64.33
65972;SHT31;52726;48.852;9.152;2022-10-16T13:46:03;22.29;66.60
65972;SHT31;52726;48.852;9.152;2022-10-16T13:48:30;22.00;69.61
65972;SHT31;52726;48.852;9.152;2022-10-16T13:53:33;21.86;73.97
65972;SHT31;52726;48.852;9.152;2022-10-16T13:55:59;21.90;74.99
65972;SHT31;52726;48.852;9.152;2022-10-16T13:58:25;21.92;70.21
65972;SHT31;52726;48.852;9.152;2022-10-16T14:01:05;21.72;71.55
65972;SHT31;52726;48.852;9.152;2022-10-16T14:03:32;21.55;71.13
65972;SHT31;52726;48.852;9.152;2022-10-16T14:06:04;21.44;73.01
65972;SHT31;52726;48.852;9.152;2022-10-16T14:08:31;21.34;71.42
65972;SHT31;52726;48.852;9.152;2022-10-16T14:10:59;21.31;69.83
65972;SHT31;52726;48.852;9.152;2022-10-16T14:13:44;21.30;69.56
65972;SHT31;52726;48.852;9.152;2022-10-16T14:16:16;21.30;71.36
65972;SHT31;52726;48.852;9.152;2022-10-16T14:18:59;21.33;69.96
65972;SHT31;52726;48.852;9.152;2022-10-16T14:21:25;21.31;72.46
65972;SHT31;52726;48.852;9.152;2022-10-16T14:23:52;21.37;70.32
65972;SHT31;52726;48.852;9.152;2022-10-16T14:26:20;21.41;70.70
65972;SHT31;52726;48.852;9.152;2022-10-16T14:28:47;21.34;71.10
65972;SHT31;52726;48.852;9.152;2022-10-16T14:33:44;21.27;72.00
65972;SHT31;52726;48.852;9.152;2022-10-16T14:36:11;21.23;71.61
65972;SHT31;52726;48.852;9.152;2022-10-16T14:39:33;21.28;69.88
65972;SHT31;52726;48.852;9.152;2022-10-16T14:41:42;21.31;71.68
65972;SHT31;52726;48.852;9.152;2022-10-16T14:44:12;21.24;70.74
65972;SHT31;52726;48.852;9.152;2022-10-16T14:46:39;21.30;71.55
65972;SHT31;52726;48.852;9.152;2022-10-16T14:51:34;21.33;73.13
65972;SHT31;52726;48.852;9.152;2022-10-16T14:54:03;21.30;71.49
65972;SHT31;52726;48.852;9.152;2022-10-16T14:56:31;21.35;72.13
65972;SHT31;52726;48.852;9.152;2022-10-16T14:58:58;21.51;68.50
65972;SHT31;52726;48.852;9.152;2022-10-16T15:01:23;21.52;72.44
65972;SHT31;52726;48.852;9.152;2022-10-16T15:03:49;21.41;73.28
65972;SHT31;52726;48.852;9.152;2022-10-16T15:06:15;21.45;70.01
65972;SHT31;52726;48.852;9.152;2022-10-16T15:08:41;21.50;68.93
65972;SHT31;52726;48.852;9.152;2022-10-16T15:11:17;21.62;67.93
65972;SHT31;52726;48.852;9.152;2022-10-16T15:13:46;21.62;71.27
65972;SHT31;52726;48.852;9.152;2022-10-16T15:16:14;21.51;70.75
65972;SHT31;52726;48.852;9.152;2022-10-16T15:18:39;21.50;68.86
65972;SHT31;52726;48.852;9.152;2022-10-16T15:21:05;21.45;70.30
65972;SHT31;52726;48.852;9.152;2022-10-16T15:23:31;21.45;68.62
65972;SHT31;52726;48.852;9.152;2022-10-16T15:25:56;21.44;68.92
65972;SHT31;52726;48.852;9.152;2022-10-16T15:28:25;21.38;69.48
65972;SHT31;52726;48.852;9.152;2022-10-16T15:30:52;21.48;68.34
65972;SHT31;52726;48.852;9.152;2022-10-16T15:33:21;21.35;71.33
65972;SHT31;52726;48.852;9.152;2022-10-16T15:35:49;21.20;71.58
65972;SHT31;52726;48.852;9.152;2022-10-16T15:38:17;21.14;72.36
65972;SHT31;52726;48.852;9.152;2022-10-16T15:40:42;21.14;71.45
65972;SHT31;52726;48.852;9.152;2022-10-16T15:43:08;21.10;71.56
65972;SHT31;52726;48.852;9.152;2022-10-16T15:45:34;20.99;72.63
65972;SHT31;52726;48.852;9.152;2022-10-16T15:48:00;20.87;73.74
65972;SHT31;52726;48.852;9.152;2022-10-16T15:50:25;20.89;72.09
65972;SHT31;52726;48.852;9.152;2022-10-16T15:52:51;20.79;73.88
65972;SHT31;52726;48.852;9.152;2022-10-16T15:55:16;20.69;74.45
65972;SHT31;52726;48.852;9.152;2022-10-16T15:57:44;20.59;75.95
65972;SHT31;52726;48.852;9.152;2022-10-16T16:00:15;20.52;74.94
65972;SHT31;52726;48.852;9.152;2022-10-16T16:02:42;20.41;76.77
65972;SHT31;52726;48.852;9.152;2022-10-16T16:05:08;20.35;74.96
65972;SHT31;52726;48.852;9.152;2022-10-16T16:07:35;20.45;73.28
65972;SHT31;52726;48.852;9.152;2022-10-16T16:10:01;20.39;75.01
65972;SHT31;52726;48.852;9.152;2022-10-16T16:12:26;20.24;76.12
65972;SHT31;52726;48.852;9.152;2022-10-16T16:14:55;20.18;75.26
65972;SHT31;52726;48.852;9.152;2022-10-16T16:17:20;20.06;76.44
65972;SHT31;52726;48.852;9.152;2022-10-16T16:19:46;19.90;77.27
65972;SHT31;52726;48.852;9.152;2022-10-16T16:22:11;19.80;77.07
65972;SHT31;52726;48.852;9.152;2022-10-16T16:24:36;19.67;77.78
65972;SHT31;52726;48.852;9.152;2022-10-16T16:27:02;19.58;77.25
65972;SHT31;52726;48.852;9.152;2022-10-16T16:29:27;19.51;78.54
65972;SHT31;52726;48.852;9.152;2022-10-16T16:31:53;19.36;78.55
65972;SHT31;52726;48.852;9.152;2022-10-16T16:34:23;19.25;79.42
65972;SHT31;52726;48.852;9.152;2022-10-16T16:36:49;19.14;80.57
65972;SHT31;52726;48.852;9.152;2022-10-16T16:39:15;19.03;80.67
65972;SHT31;52726;48.852;9.152;2022-10-16T16:41:40;18.95;80.92
65972;SHT31;52726;48.852;9.152;2022-10-16T16:44:07;18.88;81.14
65972;SHT31;52726;48.852;9.152;2022-10-16T16:46:34;18.80;81.52
65972;SHT31;52726;48.852;9.152;2022-10-16T16:49:00;18.68;82.05
65972;SHT31;52726;48.852;9.152;2022-10-16T16:51:26;18.61;82.47
65972;SHT31;52726;48.852;9.152;2022-10-16T16:53:53;18.60;82.05
65972;SHT31;52726;48.852;9.152;2022-10-16T16:56:20;18.59;82.63
65972;SHT31;52726;48.852;9.152;2022-10-16T16:58:46;18.55;82.62
65972;SHT31;52726;48.852;9.152;2022-10-16T17:01:12;18.52;82.88
65972;SHT31;52726;48.852;9.152;2022-10-16T17:03:37;18.42;83.46
65972;SHT31;52726;48.852;9.152;2022-10-16T17:08:29;18.19;85.18
65972;SHT31;52726;48.852;9.152;2022-10-16T17:10:55;18.00;85.56
65972;SHT31;52726;48.852;9.152;2022-10-16T17:13:23;17.88;85.87
65972;SHT31;52726;48.852;9.152;2022-10-16T17:15:50;17.75;86.28
65972;SHT31;52726;48.852;9.152;2022-10-16T17:18:19;17.70;86.52
65972;SHT31;52726;48.852;9.152;2022-10-16T17:20:46;17.59;86.82
65972;SHT31;52726;48.852;9.152;2022-10-16T17:23:12;17.44;87.19
65972;SHT31;52726;48.852;9.152;2022-10-16T17:25:40;17.36;87.06
65972;SHT31;52726;48.852;9.152;2022-10-16T17:28:08;17.26;87.56
65972;SHT31;52726;48.852;9.152;2022-10-16T17:30:36;17.20;87.77
65972;SHT31;52726;48.852;9.152;2022-10-16T17:33:03;17.11;88.56